createdAt,value
2023-04-08T00:01:19.956Z,90.57
2023-04-08T00:03:47.067Z,90.64
2023-04-08T00:06:14.004Z,90.45
2023-04-08T00:08:40.984Z,90.44
2023-04-08T00:11:07.931Z,90.46
2023-04-08T00:13:34.893Z,90.56
2023-04-08T00:16:02.138Z,90.63
2023-04-08T00:18:29.679Z,90.92
2023-04-08T00:20:57.621Z,90.54
2023-04-08T00:23:24.941Z,90.79
2023-04-08T00:25:51.939Z,90.84
2023-04-08T00:28:18.916Z,90.93
2023-04-08T00:30:46.123Z,90.67
2023-04-08T00:33:13.378Z,90.83
2023-04-08T00:35:40.368Z,90.91
2023-04-08T00:38:08.309Z,90.88
2023-04-08T00:40:35.947Z,91.02
2023-04-08T00:43:02.858Z,90.75
2023-04-08T00:45:29.987Z,91.05
2023-04-08T00:47:57.168Z,91.18
2023-04-08T00:50:24.489Z,91.03
2023-04-08T00:52:51.490Z,91.05
2023-04-08T00:55:18.469Z,90.84
2023-04-08T00:57:46.258Z,91.18
2023-04-08T01:00:14.579Z,91.10
2023-04-08T01:03:11.339Z,90.82
2023-04-08T01:05:57.386Z,91.09
2023-04-08T01:08:27.789Z,90.92
2023-04-08T01:10:59.542Z,90.99
2023-04-08T01:13:27.520Z,91.08
2023-04-08T01:15:55.173Z,91.20
2023-04-08T01:18:23.114Z,91.29
2023-04-08T01:20:51.124Z,91.18
2023-04-08T01:23:35.625Z,91.14
2023-04-08T01:26:02.543Z,91.41
2023-04-08T01:28:30.270Z,91.04
2023-04-08T01:31:01.246Z,91.45
2023-04-08T01:33:29.161Z,91.21
2023-04-08T01:35:57.098Z,91.24
2023-04-08T01:38:26.326Z,91.34
2023-04-08T01:40:55.123Z,91.30
2023-04-08T01:43:22.989Z,91.30
2023-04-08T01:45:50.574Z,91.41
2023-04-08T01:48:18.986Z,91.30
2023-04-08T01:50:46.428Z,91.59
2023-04-08T01:53:13.883Z,91.37
2023-04-08T01:55:44.447Z,91.40
2023-04-08T01:58:19.689Z,91.37
2023-04-08T02:00:46.990Z,91.60
2023-04-08T02:03:15.399Z,91.67
2023-04-08T02:05:42.549Z,91.34
2023-04-08T02:08:10.398Z,91.34
2023-04-08T02:10:37.283Z,91.46
2023-04-08T02:13:05.656Z,91.31
2023-04-08T02:15:36.000Z,91.58
2023-04-08T02:18:10.055Z,91.67
2023-04-08T02:21:12.677Z,91.36
2023-04-08T02:23:41.265Z,91.30
2023-04-08T02:26:13.029Z,91.78
2023-04-08T02:28:42.291Z,91.80
2023-04-08T02:31:15.373Z,91.70
2023-04-08T02:33:46.368Z,91.41
2023-04-08T02:36:15.039Z,91.72
2023-04-08T02:38:41.961Z,91.66
2023-04-08T02:41:09.062Z,91.43
2023-04-08T02:43:36.026Z,91.65
2023-04-08T02:46:07.895Z,91.56
2023-04-08T02:48:36.925Z,91.51
2023-04-08T02:51:04.007Z,91.79
2023-04-08T02:53:31.138Z,91.66
2023-04-08T02:55:58.183Z,91.77
2023-04-08T02:58:25.379Z,91.63
2023-04-08T03:00:52.325Z,92.01
2023-04-08T03:03:19.618Z,92.04
2023-04-08T03:05:46.624Z,92.01
2023-04-08T03:08:13.414Z,92.01
2023-04-08T03:10:40.463Z,91.89
2023-04-08T03:13:07.355Z,91.95
2023-04-08T04:52:46.355Z,92.25
2023-04-08T04:55:13.691Z,92.39
2023-04-08T04:57:41.448Z,92.43
2023-04-08T05:00:14.234Z,92.63
2023-04-08T05:02:41.646Z,92.22
2023-04-08T05:05:10.017Z,92.35
2023-04-08T05:07:37.937Z,92.23
2023-04-08T05:10:06.207Z,92.19
2023-04-08T05:12:36.309Z,92.49
2023-04-08T05:15:03.780Z,92.75
2023-04-08T05:17:34.310Z,92.25
2023-04-08T05:20:01.846Z,92.29
2023-04-08T05:22:29.453Z,92.24
2023-04-08T05:24:58.318Z,92.66
2023-04-08T05:27:26.086Z,92.21
2023-04-08T05:29:53.838Z,92.50
2023-04-08T05:32:21.252Z,92.52
2023-04-08T05:34:48.791Z,92.60
2023-04-08T05:37:15.832Z,92.58
2023-04-08T05:39:43.170Z,92.70
2023-04-08T05:42:10.210Z,92.68
2023-04-08T05:47:44.545Z,92.44
2023-04-08T05:50:14.016Z,92.44
2023-04-08T05:52:45.068Z,92.51
2023-04-08T05:55:15.675Z,92.37
2023-04-08T05:57:44.189Z,92.26
2023-04-08T06:00:13.571Z,92.50
2023-04-08T06:02:41.784Z,92.39
2023-04-08T06:05:12.005Z,92.54
2023-04-08T06:07:52.193Z,92.33
2023-04-08T06:10:19.651Z,92.50
2023-04-08T06:12:47.280Z,92.61
2023-04-08T06:15:14.728Z,92.62
2023-04-08T06:17:42.089Z,92.60
2023-04-08T06:20:13.184Z,92.59
2023-04-08T06:22:40.233Z,92.41
2023-04-08T06:25:09.169Z,92.50
2023-04-08T06:31:25.342Z,92.33
2023-04-08T06:34:31.904Z,92.25
2023-04-08T06:37:01.862Z,92.38
2023-04-08T06:39:58.522Z,92.37
2023-04-08T06:42:53.186Z,92.38
2023-04-08T06:45:34.732Z,92.22
2023-04-08T06:48:26.054Z,92.50
2023-04-08T06:51:05.342Z,92.65
2023-04-08T06:53:35.014Z,92.28
2023-04-08T06:56:02.226Z,92.43
2023-04-08T06:58:31.633Z,92.40
2023-04-08T07:00:59.972Z,92.43
2023-04-08T07:03:27.503Z,92.56
2023-04-08T07:05:54.770Z,92.42
2023-04-08T07:08:21.755Z,92.30
2023-04-08T07:11:43.452Z,92.36
2023-04-08T07:15:03.613Z,92.51
2023-04-08T07:17:47.958Z,92.36
2023-04-08T07:20:15.135Z,92.16
2023-04-08T07:22:44.693Z,92.07
2023-04-08T07:25:47.369Z,92.18
2023-04-08T07:28:18.901Z,92.06
2023-04-08T07:30:56.067Z,92.04
2023-04-08T09:30:16.208Z,88.39
2023-04-08T09:32:53.683Z,88.00
2023-04-08T09:35:21.080Z,88.07
2023-04-08T09:37:48.477Z,87.70
2023-04-08T09:40:37.067Z,86.80
2023-04-08T09:43:09.383Z,86.07
2023-04-08T09:45:39.405Z,85.63
2023-04-08T09:48:16.396Z,85.69
2023-04-08T09:50:48.159Z,85.28
2023-04-08T09:53:23.433Z,85.45
2023-04-08T09:55:52.174Z,85.34
2023-04-08T09:58:28.203Z,84.89
2023-04-08T10:01:08.859Z,84.83
2023-04-08T10:03:38.592Z,84.85
2023-04-08T10:06:12.213Z,84.38
2023-04-08T10:08:42.172Z,84.39
2023-04-08T10:11:09.699Z,83.77
2023-04-08T10:13:41.048Z,83.41
2023-04-08T10:16:24.770Z,83.36
2023-04-08T10:18:56.030Z,82.82
2023-04-08T10:21:37.348Z,82.71
2023-04-08T10:24:08.876Z,82.45
2023-04-08T10:26:44.092Z,82.33
2023-04-08T10:29:21.728Z,81.78
2023-04-08T10:31:52.895Z,81.96
2023-04-08T10:34:23.137Z,81.56
2023-04-08T10:36:52.890Z,80.95
2023-04-08T10:39:20.069Z,80.83
2023-04-08T10:41:51.119Z,79.97
2023-04-08T10:44:27.007Z,79.81
2023-04-08T10:47:05.139Z,79.63
2023-04-08T10:49:41.777Z,78.85
2023-04-08T10:52:21.860Z,78.55
2023-04-08T10:54:53.584Z,78.14
2023-04-08T10:57:27.415Z,77.14
2023-04-08T10:59:57.333Z,76.79
2023-04-08T11:02:33.396Z,75.94
2023-04-08T11:05:00.289Z,75.30
2023-04-08T11:07:27.455Z,75.01
2023-04-08T11:09:55.971Z,74.25
2023-04-08T11:12:23.208Z,73.63
2023-04-08T11:14:53.047Z,72.73
2023-04-08T11:17:19.863Z,71.34
2023-04-08T11:19:46.812Z,70.81
2023-04-08T11:22:13.597Z,70.09
2023-04-08T11:24:50.606Z,69.77
2023-04-08T11:32:18.247Z,68.63
2023-04-08T11:35:46.153Z,68.78
2023-04-08T11:35:46.613Z,69.08
2023-04-08T11:42:53.179Z,68.13
2023-04-08T11:45:24.196Z,68.33
2023-04-08T11:47:51.152Z,68.29
2023-04-08T11:50:26.168Z,68.31
2023-04-08T11:52:53.851Z,68.18
2023-04-08T11:55:31.649Z,68.07
2023-04-08T11:58:03.604Z,68.07
2023-04-08T12:00:31.467Z,68.07
2023-04-08T12:02:58.455Z,67.39
2023-04-08T12:05:25.684Z,67.14
2023-04-08T12:07:52.554Z,67.01
2023-04-08T12:28:07.242Z,65.13
2023-04-08T14:02:54.398Z,59.91
2023-04-08T14:05:21.356Z,58.96
2023-04-08T14:07:48.251Z,58.19
2023-04-08T14:10:16.419Z,58.39
2023-04-08T14:12:43.232Z,58.80
2023-04-08T14:15:10.485Z,58.77
2023-04-08T14:17:37.375Z,57.91
2023-04-08T14:20:06.636Z,57.87
2023-04-08T14:22:33.418Z,56.90
2023-04-08T14:25:00.667Z,55.65
2023-04-08T14:27:28.217Z,54.95
2023-04-08T14:29:54.991Z,54.63
2023-04-08T14:32:22.013Z,54.53
2023-04-08T14:34:49.144Z,53.65
2023-04-08T14:37:17.995Z,53.60
2023-04-08T14:39:45.244Z,53.27
2023-04-08T14:42:12.113Z,52.97
2023-04-08T14:44:39.276Z,52.45
2023-04-08T14:47:06.058Z,52.12
2023-04-08T14:49:32.793Z,51.76
2023-04-08T14:51:59.720Z,51.78
2023-04-08T14:54:26.446Z,52.27
2023-04-08T14:56:54.174Z,52.43
2023-04-08T14:59:21.074Z,52.11
2023-04-08T15:01:47.907Z,51.36
2023-04-08T15:04:14.877Z,51.37
2023-04-08T15:06:41.653Z,50.12
2023-04-08T15:09:08.497Z,49.43
2023-04-08T15:11:35.445Z,48.81
2023-04-08T15:14:04.839Z,48.79
2023-04-08T15:16:31.913Z,48.32
2023-04-08T15:19:00.630Z,47.59
2023-04-08T15:21:27.838Z,47.22
2023-04-08T15:23:55.007Z,46.44
2023-04-08T15:26:21.908Z,46.42
2023-04-08T15:28:49.258Z,46.10
2023-04-08T15:31:16.968Z,45.62
2023-04-08T15:33:48.840Z,46.04
2023-04-08T15:36:59.082Z,46.64
2023-04-08T15:39:26.590Z,47.82
2023-04-08T15:42:05.164Z,48.62
2023-04-08T15:48:08.551Z,50.50
2023-04-08T15:50:36.130Z,50.95
2023-04-08T15:53:03.504Z,50.85
2023-04-08T15:59:03.325Z,49.54
2023-04-08T16:05:58.375Z,46.85
2023-04-08T16:09:08.150Z,46.44
2023-04-08T16:11:45.278Z,45.56
2023-04-08T16:14:19.031Z,45.70
2023-04-08T16:20:40.056Z,44.71
2023-04-08T16:23:32.310Z,45.07
2023-04-08T16:25:59.157Z,46.49
2023-04-08T16:28:35.471Z,47.69
2023-04-08T16:35:28.787Z,51.16
2023-04-08T16:38:14.065Z,52.67
2023-04-08T16:41:06.508Z,53.72
2023-04-08T16:43:37.970Z,54.46
2023-04-08T16:46:17.962Z,55.22
2023-04-08T16:48:57.510Z,56.04
2023-04-08T16:51:35.292Z,56.82
2023-04-08T16:54:11.630Z,57.49
2023-04-08T16:56:51.081Z,58.16
2023-04-08T17:02:51.737Z,59.22
2023-04-08T17:05:23.817Z,59.69
2023-04-08T17:07:51.882Z,60.35
2023-04-08T17:10:19.963Z,60.65
2023-04-08T17:12:47.263Z,61.05
2023-04-08T17:15:18.362Z,61.11
2023-04-08T17:17:48.211Z,61.91
2023-04-08T17:20:16.025Z,62.21
2023-04-08T17:22:43.603Z,62.29
2023-04-08T17:25:18.396Z,62.55
2023-04-08T17:27:54.911Z,62.74
2023-04-08T17:30:23.610Z,63.23
2023-04-08T17:32:52.881Z,63.94
2023-04-08T17:35:21.683Z,63.94
2023-04-08T17:37:51.417Z,64.31
2023-04-08T17:40:20.444Z,64.31
2023-04-08T17:42:48.056Z,63.62
2023-04-08T17:45:20.892Z,63.59
2023-04-08T17:47:50.777Z,63.49
2023-04-08T17:50:18.600Z,63.77
2023-04-08T17:52:49.563Z,63.79
2023-04-08T17:55:17.497Z,63.90
2023-04-08T17:57:45.617Z,64.22
2023-04-08T18:00:16.828Z,63.97
2023-04-08T18:02:44.896Z,64.49
2023-04-08T18:05:12.851Z,64.58
2023-04-08T18:07:40.433Z,64.68
2023-04-08T18:10:08.348Z,64.38
2023-04-08T18:12:35.976Z,64.48
2023-04-08T18:15:09.381Z,64.62
2023-04-08T18:17:46.997Z,64.79
2023-04-08T18:20:18.573Z,64.78
2023-04-08T18:22:46.372Z,64.80
2023-04-08T18:25:26.093Z,64.72
2023-04-08T18:27:54.809Z,64.81
2023-04-08T18:30:59.922Z,64.91
2023-04-08T18:33:30.071Z,64.47
2023-04-08T18:35:59.606Z,64.67
2023-04-08T18:38:40.851Z,64.54
2023-04-08T18:41:25.166Z,64.87
2023-04-08T18:44:13.860Z,64.85
2023-04-08T18:46:49.045Z,64.81
2023-04-08T18:49:28.862Z,64.80
2023-04-08T18:52:02.623Z,64.78
2023-04-08T18:54:38.071Z,64.99
2023-04-08T18:57:07.257Z,64.95
2023-04-08T18:59:34.233Z,65.05
2023-04-08T19:02:08.775Z,64.74
2023-04-08T19:04:36.031Z,64.73
2023-04-08T19:07:03.417Z,64.93
2023-04-08T19:09:30.648Z,65.10
2023-04-08T19:11:57.790Z,65.01
2023-04-08T19:14:25.870Z,65.04
2023-04-08T19:16:52.941Z,64.92
2023-04-08T19:19:19.950Z,64.98
2023-04-08T19:21:48.923Z,64.92
2023-04-08T19:24:16.204Z,64.92
2023-04-08T19:26:43.370Z,64.65
2023-04-08T19:29:14.481Z,64.84
2023-04-08T19:31:43.702Z,64.97
2023-04-08T19:34:10.931Z,64.66
2023-04-08T19:36:38.698Z,64.93
2023-04-08T19:39:06.773Z,64.60
2023-04-08T19:41:34.436Z,64.37
2023-04-08T19:44:02.027Z,64.46
2023-04-08T19:46:29.930Z,64.82
2023-04-08T19:48:59.181Z,64.61
2023-04-08T19:51:28.197Z,64.88
2023-04-08T19:53:55.633Z,64.99
2023-04-08T19:56:26.260Z,64.74
2023-04-08T19:58:55.123Z,65.04
2023-04-08T20:01:22.624Z,65.10
2023-04-08T20:03:52.994Z,65.08
2023-04-08T20:06:21.018Z,65.13
2023-04-08T20:08:50.738Z,65.14
2023-04-08T20:11:17.909Z,65.14
2023-04-08T20:13:45.136Z,65.23
2023-04-08T20:16:13.464Z,65.20
2023-04-08T20:18:49.592Z,64.88
2023-04-08T20:22:03.519Z,64.91
2023-04-08T20:24:30.809Z,64.57
2023-04-08T20:27:02.167Z,64.21
2023-04-08T20:29:30.625Z,63.98
2023-04-08T20:31:58.029Z,63.97
2023-04-08T20:34:25.060Z,63.89
2023-04-08T20:36:53.164Z,63.70
2023-04-08T20:39:20.190Z,64.00
2023-04-08T20:41:48.638Z,63.86
2023-04-08T20:44:16.210Z,63.70
2023-04-08T20:46:43.374Z,63.40
2023-04-08T20:49:10.365Z,63.78
2023-04-08T20:51:37.336Z,63.38
2023-04-08T20:54:05.150Z,63.62
2023-04-08T20:56:32.433Z,63.81
2023-04-08T20:59:00.463Z,63.51
2023-04-08T21:01:28.601Z,63.47
2023-04-08T21:03:56.296Z,63.46
2023-04-08T21:06:27.769Z,63.58
2023-04-08T21:08:54.773Z,63.95
2023-04-08T21:11:21.990Z,63.87
2023-04-08T21:13:49.549Z,63.61
2023-04-08T21:16:16.818Z,63.90
2023-04-08T21:18:43.694Z,63.91
2023-04-08T21:21:11.577Z,63.54
2023-04-08T21:23:38.398Z,63.50
2023-04-08T21:26:11.263Z,63.51
2023-04-08T21:28:39.019Z,63.69
2023-04-08T21:31:10.214Z,64.07
2023-04-08T21:33:38.130Z,64.36
2023-04-08T21:36:06.597Z,64.25
2023-04-08T21:38:33.914Z,64.52
2023-04-08T21:41:01.061Z,64.45
2023-04-08T21:43:27.926Z,64.87
2023-04-08T21:45:54.823Z,64.77
2023-04-08T21:48:21.802Z,64.56
2023-04-08T21:50:49.289Z,64.36
2023-04-08T21:53:16.928Z,64.36
2023-04-08T21:55:43.783Z,64.65
2023-04-08T21:58:12.599Z,64.65
2023-04-08T22:00:39.568Z,64.60
2023-04-08T22:03:09.497Z,64.80
2023-04-08T22:05:37.056Z,64.55
2023-04-08T22:08:04.051Z,64.48
2023-04-08T22:10:30.797Z,64.84
2023-04-08T22:12:57.671Z,65.08
2023-04-08T22:15:24.524Z,64.94
2023-04-08T22:17:51.579Z,65.26
2023-04-08T22:20:18.744Z,65.37
2023-04-08T22:22:45.634Z,65.40
2023-04-08T22:25:12.646Z,65.33
2023-04-08T22:27:39.566Z,65.44
2023-04-08T22:30:07.142Z,65.56
2023-04-08T22:32:33.939Z,65.48
2023-04-08T22:35:00.767Z,65.73
2023-04-08T22:37:27.610Z,65.70
2023-04-08T22:39:54.768Z,66.11
2023-04-08T22:42:21.815Z,66.08
2023-04-08T22:44:48.629Z,66.41
2023-04-08T22:47:15.900Z,66.51
2023-04-08T22:49:42.910Z,66.65
2023-04-08T22:52:10.005Z,66.38
2023-04-08T22:54:37.337Z,66.69
2023-04-08T22:57:04.233Z,66.64
2023-04-08T22:59:31.167Z,66.87
2023-04-08T23:01:58.111Z,67.04
2023-04-08T23:04:25.010Z,66.85
2023-04-08T23:06:51.857Z,67.00
2023-04-08T23:09:19.738Z,67.07
2023-04-08T23:11:46.564Z,66.96
2023-04-08T23:14:13.461Z,67.16
2023-04-08T23:16:40.485Z,67.31
2023-04-08T23:19:07.307Z,67.22
2023-04-08T23:21:34.307Z,67.25
2023-04-08T23:24:01.160Z,67.45
2023-04-08T23:26:27.982Z,67.53
2023-04-08T23:28:54.844Z,67.63
2023-04-08T23:31:21.813Z,67.91
2023-04-08T23:33:48.747Z,67.86
2023-04-08T23:36:15.582Z,68.16
2023-04-08T23:38:42.565Z,68.26
2023-04-08T23:41:09.437Z,68.06
2023-04-08T23:43:36.762Z,68.49
2023-04-08T23:46:03.726Z,68.33
2023-04-08T23:48:30.551Z,68.36
2023-04-08T23:50:57.356Z,68.36
2023-04-08T23:53:24.195Z,68.75
2023-04-08T23:55:51.197Z,68.88
2023-04-08T23:58:18.072Z,68.76
